Time;durP1;ratioP1;P1;durP2;ratioP2;P2;SDS_P1;SDS_P2;PMS_P1;PMS_P2;Temp;Humidity;BMP_temperature;BMP_pressure;BME280_temperature;BME280_humidity;BME280_pressure;Samples;Min_cycle;Max_cycle;Signal;HPM_P1;HPM_P2
2022/12/06 00:02:09;;;;;;;35.97;21.50;;;3.40;41.90;;;;;;4985897;28;20848;-70
2022/12/06 00:04:36;;;;;;;30.00;19.00;;;3.40;42.00;;;;;;4985184;28;20493;-71
2022/12/06 00:07:03;;;;;;;37.80;19.43;;;3.40;41.80;;;;;;4982910;28;20822;-71
2022/12/06 00:09:31;;;;;;;54.67;20.20;;;3.30;41.90;;;;;;4987238;28;20621;-70
2022/12/06 00:11:58;;;;;;;69.20;21.40;;;3.40;41.90;;;;;;4985155;28;20465;-70
2022/12/06 00:14:28;;;;;;;41.73;19.47;;;3.30;41.90;;;;;;4984470;28;20484;-71
2022/12/06 00:16:55;;;;;;;55.43;19.63;;;3.30;42.10;;;;;;4987384;28;20821;-71
2022/12/06 00:19:23;;;;;;;33.60;17.40;;;3.30;42.10;;;;;;4986405;28;20519;-71
2022/12/06 00:21:50;;;;;;;33.93;18.70;;;3.30;42.30;;;;;;4983591;28;20471;-70
2022/12/06 00:24:19;;;;;;;37.30;17.97;;;3.30;42.40;;;;;;4985136;28;20547;-70
2022/12/06 00:26:47;;;;;;;34.20;19.63;;;3.30;42.30;;;;;;4983793;23;20493;-71
2022/12/06 00:29:16;;;;;;;33.90;18.00;;;3.40;42.30;;;;;;4964775;28;20464;-70
2022/12/06 00:31:44;;;;;;;47.40;18.93;;;3.30;42.30;;;;;;4965375;28;20488;-71
2022/12/06 00:34:11;;;;;;;39.23;17.53;;;3.30;42.40;;;;;;4969114;28;20462;-71
2022/12/06 00:36:39;;;;;;;37.87;18.40;;;3.40;42.50;;;;;;4965865;28;20485;-71
2022/12/06 00:39:09;;;;;;;40.20;19.83;;;3.40;42.40;;;;;;4964373;28;20473;-70
2022/12/06 00:41:35;;;;;;;38.03;17.83;;;3.40;42.50;;;;;;4959869;28;20955;-70
2022/12/06 00:44:02;;;;;;;46.43;19.00;;;3.40;42.40;;;;;;4966063;28;20986;-70
2022/12/06 00:46:31;;;;;;;42.30;19.30;;;3.40;42.50;;;;;;4965372;28;20510;-70
2022/12/06 00:49:01;;;;;;;37.50;19.13;;;3.40;42.70;;;;;;4967597;28;20458;-70
2022/12/06 00:51:29;;;;;;;42.67;20.00;;;3.40;42.70;;;;;;4964368;28;20453;-70
2022/12/06 00:53:57;;;;;;;38.00;19.63;;;3.40;42.60;;;;;;4962682;28;20462;-70
2022/12/06 00:56:24;;;;;;;32.23;18.10;;;3.40;42.60;;;;;;4969045;28;20903;-70
2022/12/06 00:58:51;;;;;;;32.50;19.50;;;3.40;42.70;;;;;;4966799;28;20438;-70
2022/12/06 01:01:20;;;;;;;33.60;19.93;;;3.40;42.80;;;;;;4963575;28;21200;-71
2022/12/06 01:03:50;;;;;;;36.73;17.83;;;3.50;42.80;;;;;;4960499;28;20453;-72
2022/12/06 01:06:21;;;;;;;33.77;19.10;;;3.50;42.70;;;;;;4964327;28;20592;-70
2022/12/06 01:08:48;;;;;;;37.67;21.00;;;3.50;42.80;;;;;;4961008;28;20963;-71
2022/12/06 01:11:16;;;;;;;38.20;22.20;;;3.50;42.80;;;;;;4966209;28;20458;-70
2022/12/06 01:13:43;;;;;;;43.60;21.53;;;3.50;42.70;;;;;;4965274;28;20457;-71
2022/12/06 01:16:12;;;;;;;37.20;19.10;;;3.60;42.70;;;;;;4963468;28;20496;-71
2022/12/06 01:18:40;;;;;;;32.17;19.13;;;3.60;42.70;;;;;;4970561;28;20453;-70
2022/12/06 01:21:07;;;;;;;37.87;20.50;;;3.70;42.60;;;;;;4967290;28;20481;-70
2022/12/06 01:23:36;;;;;;;37.53;20.23;;;3.70;42.50;;;;;;4967211;28;20461;-69
2022/12/06 01:26:03;;;;;;;39.27;20.10;;;3.70;42.40;;;;;;4968659;28;21075;-70
2022/12/06 01:28:30;;;;;;;39.93;21.47;;;3.70;42.40;;;;;;4965394;28;20462;-72
2022/12/06 01:30:57;;;;;;;34.83;20.17;;;3.80;42.50;;;;;;4967585;28;20481;-72
2022/12/06 01:33:24;;;;;;;38.63;20.40;;;3.80;42.40;;;;;;4965727;28;20606;-72
2022/12/06 01:35:51;;;;;;;38.60;22.03;;;3.80;42.50;;;;;;4965427;28;20488;-72
2022/12/06 01:38:17;;;;;;;37.33;20.50;;;3.80;42.20;;;;;;4969346;28;20472;-71
2022/12/06 01:40:47;;;;;;;37.03;21.83;;;3.80;42.40;;;;;;4967717;28;20485;-70
2022/12/06 01:43:35;;;;;;;37.40;20.70;;;3.80;42.40;;;;;;4969306;28;20998;-70
2022/12/06 01:46:10;;;;;;;33.00;20.13;;;3.90;42.50;;;;;;4965358;28;20533;-70
2022/12/06 01:48:37;;;;;;;34.53;19.30;;;3.90;42.10;;;;;;4969190;28;20829;-70
2022/12/06 01:51:07;;;;;;;34.20;19.80;;;3.90;42.00;;;;;;4966140;28;20454;-70
2022/12/06 01:53:35;;;;;;;35.57;19.17;;;3.90;42.30;;;;;;4968492;28;20477;-70
2022/12/06 01:56:04;;;;;;;37.20;21.30;;;3.90;42.10;;;;;;4956834;28;20600;-70
2022/12/06 01:58:35;;;;;;;33.60;19.30;;;3.90;42.10;;;;;;4969890;28;20965;-70
2022/12/06 02:01:02;;;;;;;38.57;20.40;;;3.90;42.20;;;;;;4962703;28;21162;-70
2022/12/06 02:03:33;;;;;;;36.50;20.17;;;3.90;42.20;;;;;;4969032;28;20474;-70
2022/12/06 02:06:01;;;;;;;36.77;19.17;;;3.90;42.20;;;;;;4968932;28;20480;-70
2022/12/06 02:08:29;;;;;;;38.67;21.93;;;3.90;42.20;;;;;;4966425;28;20843;-70
2022/12/06 02:10:56;;;;;;;35.83;19.70;;;3.90;42.20;;;;;;4964015;28;20491;-71
2022/12/06 02:13:25;;;;;;;33.57;19.83;;;3.90;42.20;;;;;;4967906;28;20462;-70
2022/12/06 02:15:58;;;;;;;35.57;21.63;;;4.00;42.20;;;;;;4966839;28;20513;-71
2022/12/06 02:18:33;;;;;;;37.17;21.10;;;4.00;42.10;;;;;;4963786;28;20472;-71
2022/12/06 02:21:11;;;;;;;33.40;18.33;;;4.00;41.90;;;;;;4964158;28;20527;-71
2022/12/06 02:24:21;;;;;;;37.00;20.40;;;4.00;41.90;;;;;;4967631;28;20461;-70
2022/12/06 02:26:50;;;;;;;36.23;20.13;;;4.00;42.00;;;;;;4959363;28;20489;-70
2022/12/06 02:29:56;;;;;;;40.27;21.27;;;4.00;41.90;;;;;;4968128;28;20548;-70
2022/12/06 02:32:33;;;;;;;34.80;20.00;;;4.00;42.10;;;;;;4962286;28;20465;-71
2022/12/06 02:35:09;;;;;;;37.30;20.80;;;4.00;42.10;;;;;;4966930;28;20965;-70
2022/12/06 02:37:42;;;;;;;36.90;21.50;;;4.10;42.70;;;;;;4967326;28;20473;-70
2022/12/06 02:40:14;;;;;;;38.60;22.90;;;4.10;42.10;;;;;;4965149;28;20482;-70
2022/12/06 02:42:47;;;;;;;35.50;20.83;;;4.10;42.10;;;;;;4964228;28;20462;-70
2022/12/06 02:45:18;;;;;;;37.60;21.23;;;4.10;41.90;;;;;;4965867;28;20461;-69
2022/12/06 02:47:48;;;;;;;37.83;20.47;;;4.10;41.90;;;;;;4966936;28;20473;-69
2022/12/06 02:50:19;;;;;;;33.80;18.90;;;4.10;41.90;;;;;;4965115;28;21233;-70
2022/12/06 02:52:50;;;;;;;36.13;20.37;;;4.10;42.00;;;;;;4970115;28;20936;-70
2022/12/06 02:55:19;;;;;;;34.20;20.13;;;4.10;41.80;;;;;;4966913;28;20477;-70
2022/12/06 02:57:47;;;;;;;39.70;20.30;;;4.10;41.90;;;;;;4966364;28;20586;-69
2022/12/06 03:00:37;;;;;;;35.53;21.40;;;4.10;42.00;;;;;;4963356;28;21032;-70
2022/12/06 03:03:28;;;;;;;35.40;20.60;;;4.10;42.10;;;;;;4961647;28;20462;-69
2022/12/06 03:06:29;;;;;;;37.67;21.20;;;4.00;42.00;;;;;;4958819;28;20908;-70
2022/12/06 03:09:06;;;;;;;31.40;19.07;;;4.00;41.90;;;;;;4963622;28;20469;-71
2022/12/06 03:11:40;;;;;;;35.73;19.87;;;4.10;41.80;;;;;;4967611;28;20454;-71
2022/12/06 03:14:12;;;;;;;35.57;20.23;;;4.10;41.90;;;;;;4968113;28;20469;-71
2022/12/06 03:16:48;;;;;;;33.33;20.83;;;4.00;41.70;;;;;;4964855;28;21086;-71
2022/12/06 03:19:20;;;;;;;32.23;18.37;;;4.00;41.90;;;;;;4967907;28;20461;-70
2022/12/06 03:21:50;;;;;;;33.73;19.80;;;3.90;42.40;;;;;;4968701;28;20481;-70
2022/12/06 03:24:17;;;;;;;34.30;20.30;;;3.90;41.80;;;;;;4964569;28;20470;-70
2022/12/06 03:26:47;;;;;;;33.10;19.23;;;3.90;41.90;;;;;;4962184;28;20490;-70
2022/12/06 03:29:16;;;;;;;32.63;19.93;;;3.80;41.80;;;;;;4962177;28;20470;-72
2022/12/06 03:31:45;;;;;;;35.90;20.13;;;3.80;41.70;;;;;;4966453;28;20546;-71
2022/12/06 03:34:16;;;;;;;36.00;21.03;;;3.80;41.70;;;;;;4964483;28;20469;-70
2022/12/06 03:36:46;;;;;;;38.30;20.50;;;3.80;41.90;;;;;;4966980;28;20477;-71
2022/12/06 03:39:16;;;;;;;33.57;19.90;;;3.80;41.80;;;;;;4963288;28;20466;-70
2022/12/06 03:41:48;;;;;;;36.10;20.10;;;3.70;41.80;;;;;;4966693;28;20474;-71
2022/12/06 03:44:15;;;;;;;38.57;20.60;;;3.70;41.90;;;;;;4967545;28;20465;-70
2022/12/06 03:46:47;;;;;;;39.70;22.13;;;3.70;42.00;;;;;;4965921;28;21033;-71
2022/12/06 03:49:19;;;;;;;35.47;20.77;;;3.70;41.90;;;;;;4966551;28;21007;-70
2022/12/06 03:51:48;;;;;;;31.80;18.93;;;3.80;41.70;;;;;;4965697;28;20458;-71
2022/12/06 03:54:15;;;;;;;34.50;20.50;;;3.80;41.70;;;;;;4966810;28;20489;-71
2022/12/06 03:56:41;;;;;;;38.07;19.57;;;3.70;41.80;;;;;;4966779;28;20485;-71
2022/12/06 03:59:10;;;;;;;35.70;20.37;;;3.80;41.80;;;;;;4967953;28;20468;-71
2022/12/06 04:01:37;;;;;;;32.50;20.63;;;3.80;41.60;;;;;;4962806;28;20491;-71
2022/12/06 04:04:05;;;;;;;35.40;20.27;;;3.80;42.30;;;;;;4967910;28;20871;-70
2022/12/06 04:06:32;;;;;;;35.00;20.37;;;3.80;41.50;;;;;;4961408;28;20486;-70
2022/12/06 04:11:41;;;;;;;35.37;19.30;;;3.80;41.40;;;;;;4965109;28;20872;-71
2022/12/06 04:14:08;;;;;;;32.03;18.53;;;3.80;41.30;;;;;;4967948;28;20458;-70
2022/12/06 04:19:19;;;;;;;38.30;19.13;;;3.70;41.40;;;;;;4961000;28;20836;-70
2022/12/06 04:24:31;;;;;;;36.70;20.47;;;3.60;41.50;;;;;;4965398;28;20456;-70
2022/12/06 04:28:40;;;;;;;34.73;20.80;;;3.70;41.70;;;;;;4966669;28;20488;-70
2022/12/06 04:40:44;;;;;;;31.33;17.60;;;3.60;41.50;;;;;;4953353;28;20846;-70
2022/12/06 04:45:56;;;;;;;34.67;20.07;;;3.70;41.30;;;;;;4962031;28;20480;-69
2022/12/06 04:48:23;;;;;;;40.03;19.47;;;3.70;41.20;;;;;;4964705;28;20459;-72
2022/12/06 04:50:50;;;;;;;31.30;16.80;;;3.70;41.30;;;;;;4966128;28;20450;-71
2022/12/06 04:53:17;;;;;;;32.80;17.30;;;3.60;41.30;;;;;;4965877;28;20491;-72
2022/12/06 04:55:47;;;;;;;34.60;19.60;;;3.60;41.40;;;;;;4965064;28;21196;-70
2022/12/06 04:58:14;;;;;;;36.17;20.13;;;3.60;41.40;;;;;;4963586;28;20480;-71
2022/12/06 05:00:42;;;;;;;38.97;22.70;;;3.60;41.50;;;;;;4964024;28;20473;-70
2022/12/06 05:03:09;;;;;;;33.43;20.70;;;3.60;41.60;;;;;;4967645;28;20572;-70
2022/12/06 05:05:36;;;;;;;36.17;21.60;;;3.60;41.40;;;;;;4964977;28;21012;-70
2022/12/06 05:08:03;;;;;;;33.50;19.03;;;3.60;41.30;;;;;;4959110;28;21001;-70
2022/12/06 05:10:30;;;;;;;34.23;19.40;;;3.60;41.30;;;;;;4962097;28;20462;-70
2022/12/06 05:12:58;;;;;;;34.63;21.60;;;3.70;41.40;;;;;;4964570;28;20549;-69
2022/12/06 05:15:25;;;;;;;33.00;19.00;;;3.60;41.30;;;;;;4965631;28;20477;-69
2022/12/06 05:17:52;;;;;;;32.37;18.90;;;3.60;41.30;;;;;;4960753;28;20462;-68
2022/12/06 05:20:19;;;;;;;33.57;19.10;;;3.60;41.40;;;;;;4962396;28;20477;-70
2022/12/06 05:22:46;;;;;;;32.87;19.10;;;3.60;41.40;;;;;;4968050;28;20511;-68
2022/12/06 05:25:13;;;;;;;36.53;19.20;;;3.60;41.50;;;;;;4965255;28;21012;-70
2022/12/06 05:27:40;;;;;;;36.77;20.70;;;3.60;41.50;;;;;;4967450;28;20465;-68
2022/12/06 05:30:10;;;;;;;33.67;20.23;;;3.70;41.50;;;;;;4961795;28;20476;-69
2022/12/06 05:32:38;;;;;;;33.93;18.10;;;3.60;41.60;;;;;;4961924;28;20577;-69
2022/12/06 05:35:05;;;;;;;32.37;17.63;;;3.70;41.70;;;;;;4964793;28;21022;-70
2022/12/06 05:37:32;;;;;;;29.20;16.23;;;3.70;41.60;;;;;;4965581;28;20465;-70
2022/12/06 05:39:59;;;;;;;34.07;15.87;;;3.70;41.40;;;;;;4966039;28;20465;-70
2022/12/06 05:42:26;;;;;;;47.00;17.87;;;3.70;40.80;;;;;;4960181;28;20482;-70
2022/12/06 05:44:52;;;;;;;38.47;16.20;;;3.70;40.50;;;;;;4961882;28;20458;-69
2022/12/06 05:47:21;;;;;;;38.90;15.83;;;3.60;40.50;;;;;;4962947;28;20877;-69
2022/12/06 05:49:47;;;;;;;28.10;16.53;;;3.60;40.30;;;;;;4964770;28;20450;-69
2022/12/06 05:52:14;;;;;;;30.27;15.77;;;3.60;40.30;;;;;;4966625;28;20460;-68
2022/12/06 05:54:41;;;;;;;31.33;18.50;;;3.50;40.70;;;;;;4967396;28;20465;-69
2022/12/06 05:57:08;;;;;;;35.33;16.63;;;3.50;40.80;;;;;;4969920;28;20483;-70
2022/12/06 05:59:35;;;;;;;26.77;14.53;;;3.50;40.80;;;;;;4964681;28;20461;-70
2022/12/06 06:02:01;;;;;;;23.93;14.70;;;3.50;40.60;;;;;;4965844;28;20572;-70
2022/12/06 06:04:30;;;;;;;27.03;14.80;;;3.50;40.50;;;;;;4961367;28;20474;-70
2022/12/06 06:06:56;;;;;;;25.27;14.30;;;3.40;40.50;;;;;;4970182;28;20684;-70
2022/12/06 06:09:24;;;;;;;26.37;15.27;;;3.40;40.40;;;;;;4964735;28;20473;-70
2022/12/06 06:11:51;;;;;;;26.00;15.17;;;3.30;40.30;;;;;;4966221;28;20898;-70
2022/12/06 06:14:18;;;;;;;25.10;13.70;;;3.30;40.40;;;;;;4968107;28;20465;-69
2022/12/06 06:16:45;;;;;;;22.77;14.03;;;3.30;40.50;;;;;;4967784;28;20490;-70
2022/12/06 06:19:11;;;;;;;26.10;15.07;;;3.20;40.90;;;;;;4966919;28;20464;-68
2022/12/06 06:21:40;;;;;;;28.80;15.70;;;3.20;41.20;;;;;;4965508;28;20482;-68
2022/12/06 06:24:07;;;;;;;32.03;18.27;;;3.10;41.40;;;;;;4963268;28;20463;-71
2022/12/06 06:26:34;;;;;;;32.27;17.53;;;3.20;41.50;;;;;;4979717;23;20504;-69
2022/12/06 06:29:00;;;;;;;30.20;17.87;;;3.20;41.50;;;;;;4985505;28;20461;-69
2022/12/06 06:31:27;;;;;;;31.17;17.33;;;3.20;41.60;;;;;;4980823;28;21013;-68
2022/12/06 06:33:54;;;;;;;29.13;17.27;;;3.20;41.60;;;;;;4982381;28;20488;-64
2022/12/06 06:36:21;;;;;;;34.30;17.73;;;3.20;41.50;;;;;;4979720;28;20879;-64
2022/12/06 06:38:49;;;;;;;26.50;16.17;;;3.20;41.50;;;;;;4986774;28;21126;-64
2022/12/06 06:41:16;;;;;;;28.53;17.50;;;3.20;41.40;;;;;;4980800;28;20473;-64
2022/12/06 06:43:42;;;;;;;30.47;17.70;;;3.20;41.50;;;;;;4985533;28;20591;-64
2022/12/06 06:46:10;;;;;;;28.60;17.53;;;3.20;41.60;;;;;;4987449;28;20473;-63
2022/12/06 06:48:39;;;;;;;24.10;15.20;;;3.10;41.60;;;;;;4987490;28;20457;-63
2022/12/06 06:51:08;;;;;;;26.87;16.27;;;3.10;41.70;;;;;;4988360;28;20461;-64
2022/12/06 06:53:35;;;;;;;24.07;14.67;;;3.10;41.90;;;;;;4983394;28;20480;-63
2022/12/06 06:56:04;;;;;;;22.73;14.83;;;3.10;42.40;;;;;;4986034;28;20465;-64
2022/12/06 06:58:30;;;;;;;25.93;15.97;;;3.20;41.40;;;;;;4987949;28;20465;-63
2022/12/06 07:00:59;;;;;;;25.10;16.00;;;3.20;41.20;;;;;;4987277;28;21016;-67
2022/12/06 07:03:27;;;;;;;23.17;14.90;;;3.20;41.10;;;;;;4986871;28;20475;-65
2022/12/06 07:05:56;;;;;;;25.00;15.47;;;3.10;41.10;;;;;;4980301;28;20471;-65
2022/12/06 07:08:23;;;;;;;27.73;16.80;;;3.10;41.20;;;;;;4983529;28;20472;-63
2022/12/06 07:10:50;;;;;;;23.57;15.20;;;3.10;41.40;;;;;;4987289;28;20471;-63
2022/12/06 07:13:19;;;;;;;26.50;16.10;;;3.10;41.20;;;;;;4978981;28;20465;-63
2022/12/06 07:15:46;;;;;;;28.07;16.70;;;3.20;41.20;;;;;;4979479;28;20547;-65
2022/12/06 07:18:13;;;;;;;25.10;15.10;;;3.10;41.20;;;;;;4981296;28;20490;-63
2022/12/06 07:20:39;;;;;;;29.33;17.03;;;3.10;41.20;;;;;;4986556;28;20469;-64
2022/12/06 07:23:06;;;;;;;25.63;16.07;;;3.20;41.10;;;;;;4980848;28;20489;-65
2022/12/06 07:25:33;;;;;;;27.80;17.20;;;3.20;41.10;;;;;;4978813;28;20944;-66
2022/12/06 07:28:00;;;;;;;25.37;15.40;;;3.20;41.20;;;;;;4981396;28;20493;-63
2022/12/06 07:30:28;;;;;;;24.97;16.43;;;3.20;41.30;;;;;;4980248;28;20453;-63
2022/12/06 07:32:55;;;;;;;31.30;17.17;;;3.20;41.10;;;;;;4984472;28;20468;-62
2022/12/06 07:35:21;;;;;;;26.17;16.30;;;3.20;41.10;;;;;;4981413;28;20461;-62
2022/12/06 07:37:48;;;;;;;27.73;17.20;;;3.20;41.30;;;;;;4980865;28;21016;-62
2022/12/06 07:40:16;;;;;;;28.63;18.97;;;3.20;41.30;;;;;;4982046;28;20846;-62
2022/12/06 07:45:28;;;;;;;27.50;17.00;;;3.20;41.20;;;;;;4982400;28;21049;-67
2022/12/06 07:47:55;;;;;;;25.93;16.27;;;3.20;41.20;;;;;;4987044;28;20473;-67
2022/12/06 07:50:22;;;;;;;28.93;18.50;;;3.20;41.30;;;;;;4982776;28;20500;-66
2022/12/06 07:52:50;;;;;;;27.23;17.23;;;3.20;41.30;;;;;;4983136;28;20464;-67
2022/12/06 07:55:18;;;;;;;25.27;16.23;;;3.30;41.20;;;;;;4981233;28;20457;-67
2022/12/06 07:57:45;;;;;;;30.80;18.57;;;3.30;41.20;;;;;;4982523;28;20490;-67
2022/12/06 08:00:14;;;;;;;34.23;18.20;;;3.30;41.30;;;;;;4983574;28;20519;-67
2022/12/06 08:02:42;;;;;;;29.50;18.33;;;3.40;41.20;;;;;;4982348;28;20488;-68
2022/12/06 08:05:09;;;;;;;32.23;16.73;;;3.40;41.10;;;;;;4981169;28;20469;-65
2022/12/06 08:07:36;;;;;;;32.40;18.60;;;3.40;41.10;;;;;;4981586;28;20481;-69
2022/12/06 08:10:03;;;;;;;27.10;17.27;;;3.40;40.80;;;;;;4974205;28;20475;-70
2022/12/06 08:12:31;;;;;;;26.60;17.13;;;3.40;40.80;;;;;;4983668;28;20461;-70
2022/12/06 08:14:58;;;;;;;26.50;16.97;;;3.50;40.90;;;;;;4976222;28;20464;-68
2022/12/06 08:17:25;;;;;;;24.77;16.67;;;3.50;40.80;;;;;;4978583;28;20476;-68
2022/12/06 08:19:53;;;;;;;29.53;18.13;;;3.50;40.70;;;;;;4975128;28;20461;-68
2022/12/06 08:22:20;;;;;;;30.67;17.40;;;3.50;40.80;;;;;;4980974;28;20498;-70
2022/12/06 08:24:47;;;;;;;26.03;17.60;;;3.50;40.80;;;;;;4977988;28;20466;-69
2022/12/06 08:27:14;;;;;;;27.00;17.73;;;3.60;40.80;;;;;;4978700;28;20497;-70
2022/12/06 08:29:43;;;;;;;30.17;19.30;;;3.60;40.70;;;;;;4984704;28;20472;-70
2022/12/06 08:32:10;;;;;;;32.93;20.33;;;3.60;40.50;;;;;;4983581;28;20476;-71
2022/12/06 08:34:37;;;;;;;32.13;20.07;;;3.60;40.50;;;;;;4977640;28;20468;-71
2022/12/06 08:37:05;;;;;;;27.50;16.83;;;3.60;40.50;;;;;;4986166;28;20484;-71
2022/12/06 08:39:32;;;;;;;31.37;18.00;;;3.70;40.40;;;;;;4983312;28;20468;-71
2022/12/06 08:42:01;;;;;;;40.97;23.90;;;3.70;40.40;;;;;;4985357;28;20503;-71
2022/12/06 08:44:29;;;;;;;35.47;18.97;;;3.70;39.90;;;;;;4980777;28;20457;-71
2022/12/06 08:46:57;;;;;;;27.97;17.70;;;3.70;40.10;;;;;;4982779;28;20480;-71
2022/12/06 08:49:25;;;;;;;32.83;18.73;;;3.70;40.00;;;;;;4981725;28;20964;-71
2022/12/06 08:51:51;;;;;;;31.47;19.57;;;3.80;39.80;;;;;;4977357;28;21181;-71
2022/12/06 08:54:23;;;;;;;34.37;19.60;;;3.80;39.70;;;;;;4982519;28;20461;-71
2022/12/06 08:56:50;;;;;;;46.93;23.50;;;3.80;39.60;;;;;;4981527;28;20514;-70
2022/12/06 08:59:18;;;;;;;28.33;18.20;;;3.80;39.70;;;;;;4978453;28;20982;-70
2022/12/06 09:01:45;;;;;;;67.10;29.43;;;3.80;39.70;;;;;;4980758;28;20496;-69
2022/12/06 09:04:12;;;;;;;42.73;21.83;;;3.80;39.70;;;;;;4985226;28;20686;-70
2022/12/06 09:06:41;;;;;;;27.97;17.87;;;3.80;39.80;;;;;;4977239;28;20489;-74
2022/12/06 09:09:09;;;;;;;31.83;20.03;;;3.90;40.10;;;;;;4980664;28;20547;-74
2022/12/06 09:11:38;;;;;;;30.20;19.67;;;3.80;40.00;;;;;;4978949;28;20462;-68
2022/12/06 09:14:06;;;;;;;33.00;21.33;;;3.90;40.10;;;;;;4980797;28;20461;-70
2022/12/06 09:16:32;;;;;;;29.30;19.90;;;3.80;40.10;;;;;;4981199;28;20492;-64
2022/12/06 09:18:59;;;;;;;34.37;19.97;;;3.90;40.30;;;;;;4985255;28;20468;-64
2022/12/06 09:21:29;;;;;;;29.03;18.77;;;3.90;40.20;;;;;;4987528;28;20461;-63
2022/12/06 09:23:56;;;;;;;32.57;20.60;;;4.00;39.80;;;;;;4986758;28;20490;-64
2022/12/06 09:26:24;;;;;;;31.37;19.47;;;4.00;39.80;;;;;;4984841;28;20488;-64
2022/12/06 09:28:54;;;;;;;31.50;17.80;;;4.00;39.80;;;;;;4978028;28;20465;-66
2022/12/06 09:31:21;;;;;;;26.40;17.20;;;4.10;39.90;;;;;;4983310;28;20485;-66
2022/12/06 09:33:48;;;;;;;29.43;18.43;;;4.10;40.00;;;;;;4987567;28;20460;-63
2022/12/06 09:36:20;;;;;;;34.53;22.97;;;4.10;39.90;;;;;;4988667;28;20486;-63
2022/12/06 09:38:48;;;;;;;35.07;21.07;;;4.20;39.90;;;;;;4988107;28;20471;-65
2022/12/06 09:42:03;;;;;;;33.07;20.33;;;4.20;39.90;;;;;;4989640;28;20522;-65
2022/12/06 09:44:55;;;;;;;30.13;18.50;;;4.30;40.00;;;;;;4942491;29;21237;-67
2022/12/06 09:47:35;;;;;;;35.23;20.90;;;4.30;39.90;;;;;;4919216;29;21018;-66
2022/12/06 09:50:11;;;;;;;32.13;19.83;;;4.40;39.60;;;;;;4969460;28;20879;-69
2022/12/06 09:53:06;;;;;;;40.30;22.23;;;4.40;39.60;;;;;;4984055;28;20535;-68
2022/12/06 09:56:00;;;;;;;31.20;19.67;;;4.40;39.80;;;;;;4984742;28;21015;-65
2022/12/06 09:58:40;;;;;;;31.77;19.57;;;4.40;39.80;;;;;;4986056;28;20563;-65
2022/12/06 10:01:19;;;;;;;34.00;18.43;;;4.50;39.60;;;;;;4989783;28;20965;-66
2022/12/06 10:03:58;;;;;;;33.50;20.17;;;4.50;39.20;;;;;;4989197;28;20567;-65
2022/12/06 10:06:34;;;;;;;31.33;18.60;;;4.60;39.30;;;;;;4986832;28;20486;-67
2022/12/06 10:09:15;;;;;;;27.10;18.50;;;4.50;39.10;;;;;;4989501;28;20902;-68
2022/12/06 10:11:54;;;;;;;29.30;18.80;;;4.50;39.10;;;;;;4985874;28;20866;-68
2022/12/06 10:14:34;;;;;;;29.80;18.90;;;4.60;39.10;;;;;;4985106;28;20458;-67
2022/12/06 10:17:12;;;;;;;28.83;17.87;;;4.60;39.00;;;;;;4984679;28;20476;-66
2022/12/06 10:19:52;;;;;;;26.47;18.30;;;4.60;39.10;;;;;;4986588;28;20486;-68
2022/12/06 10:22:26;;;;;;;30.80;19.50;;;4.80;39.00;;;;;;4988904;28;20495;-69
2022/12/06 10:25:02;;;;;;;31.50;19.17;;;4.70;38.80;;;;;;4980943;28;20472;-64
2022/12/06 10:27:36;;;;;;;29.40;18.20;;;4.70;38.80;;;;;;4986587;28;20856;-64
2022/12/06 10:30:07;;;;;;;26.83;17.30;;;4.70;38.80;;;;;;4983074;28;20888;-65
2022/12/06 10:32:51;;;;;;;27.03;16.57;;;4.70;38.90;;;;;;4984082;28;20473;-64
2022/12/06 10:35:24;;;;;;;28.23;18.30;;;4.70;38.90;;;;;;4985549;28;20461;-71
2022/12/06 10:38:05;;;;;;;25.63;16.80;;;4.70;38.70;;;;;;4981047;28;20997;-68
2022/12/06 10:40:42;;;;;;;23.90;16.27;;;4.70;39.10;;;;;;4983460;28;20467;-70
2022/12/06 10:43:16;;;;;;;29.40;17.40;;;4.80;38.70;;;;;;4989265;28;20477;-70
2022/12/06 10:48:57;;;;;;;24.03;14.60;;;4.80;38.40;;;;;;4923943;29;20459;-67
2022/12/06 10:51:31;;;;;;;27.40;19.47;;;4.80;37.70;;;;;;4927341;29;21630;-68
2022/12/06 10:54:04;;;;;;;22.70;15.23;;;4.90;38.00;;;;;;4956111;28;20469;-68
2022/12/06 10:56:37;;;;;;;24.87;15.93;;;4.90;38.10;;;;;;4989252;28;20487;-68
2022/12/06 10:59:19;;;;;;;26.27;18.43;;;4.90;38.10;;;;;;4984158;28;20838;-67
2022/12/06 11:01:47;;;;;;;25.43;16.40;;;4.90;38.30;;;;;;4983291;28;21032;-67
2022/12/06 11:04:22;;;;;;;23.30;15.93;;;4.90;38.00;;;;;;4984709;28;21160;-68
2022/12/06 11:06:51;;;;;;;27.30;17.10;;;5.00;37.90;;;;;;4981119;28;20480;-62
2022/12/06 11:09:25;;;;;;;24.97;16.43;;;5.00;38.00;;;;;;4980725;28;20550;-62
2022/12/06 11:11:52;;;;;;;23.27;15.80;;;5.00;38.00;;;;;;4981483;28;20461;-62
2022/12/06 11:14:24;;;;;;;21.67;15.40;;;5.00;38.00;;;;;;4980034;28;20464;-61
2022/12/06 11:16:55;;;;;;;22.40;16.30;;;5.10;38.00;;;;;;4976260;28;20489;-62
2022/12/06 11:19:31;;;;;;;22.63;16.07;;;5.10;37.90;;;;;;4983497;28;20467;-64
2022/12/06 11:22:06;;;;;;;24.70;15.43;;;5.10;37.80;;;;;;4983849;28;20988;-65
2022/12/06 11:24:40;;;;;;;25.30;20.33;;;5.10;37.60;;;;;;4980977;28;20562;-70
2022/12/06 11:27:14;;;;;;;23.17;16.77;;;5.10;37.70;;;;;;4983762;28;20502;-71
2022/12/06 11:29:42;;;;;;;21.27;15.10;;;5.20;37.70;;;;;;4979532;28;20475;-70
2022/12/06 11:32:09;;;;;;;25.00;17.57;;;5.20;37.70;;;;;;4984139;28;20528;-69
2022/12/06 11:34:41;;;;;;;22.80;15.37;;;5.20;37.40;;;;;;4981254;28;20468;-69
2022/12/06 11:37:15;;;;;;;24.33;16.37;;;5.30;37.50;;;;;;4978259;28;20584;-63
2022/12/06 11:39:43;;;;;;;24.57;15.27;;;5.30;37.60;;;;;;4978200;28;20834;-63
2022/12/06 11:42:13;;;;;;;25.17;18.50;;;5.30;37.50;;;;;;4980271;28;20457;-66
2022/12/06 11:44:43;;;;;;;23.93;17.07;;;5.30;37.40;;;;;;4981179;28;20461;-76
2022/12/06 11:47:15;;;;;;;24.87;16.10;;;5.30;37.30;;;;;;4980581;28;20473;-63
2022/12/06 11:49:45;;;;;;;24.70;15.43;;;5.30;37.00;;;;;;4985182;28;20464;-64
2022/12/06 11:52:16;;;;;;;27.13;17.60;;;5.40;36.90;;;;;;4982866;28;20461;-74
2022/12/06 11:54:48;;;;;;;26.43;18.07;;;5.40;36.70;;;;;;4979202;28;20545;-63
2022/12/06 11:57:21;;;;;;;22.00;15.63;;;5.40;36.80;;;;;;4976522;28;20968;-64
2022/12/06 12:00:08;;;;;;;22.43;15.50;;;5.40;36.70;;;;;;4980300;28;20461;-66
2022/12/06 12:02:35;;;;;;;22.50;15.70;;;5.40;36.80;;;;;;4976674;28;20579;-67
2022/12/06 12:05:10;;;;;;;21.67;15.47;;;5.40;36.60;;;;;;4983469;28;20476;-68
2022/12/06 12:07:40;;;;;;;29.33;16.40;;;5.40;36.70;;;;;;4974842;28;20506;-68
2022/12/06 12:10:32;;;;;;;25.90;16.43;;;5.40;36.60;;;;;;4984744;28;20823;-68
2022/12/06 12:16:11;;;;;;;25.50;16.90;;;5.40;36.90;;;;;;4983680;28;20460;-69
2022/12/06 12:18:41;;;;;;;24.40;15.90;;;5.40;37.00;;;;;;4983447;28;20499;-68
2022/12/06 12:21:10;;;;;;;22.93;14.47;;;5.40;37.70;;;;;;4983731;28;20465;-68
2022/12/06 12:23:42;;;;;;;23.37;14.97;;;5.40;37.10;;;;;;4981922;28;20492;-69
2022/12/06 12:26:12;;;;;;;26.10;13.97;;;5.40;37.10;;;;;;4984177;28;20556;-68
2022/12/06 12:28:40;;;;;;;22.93;15.47;;;5.40;37.00;;;;;;4980221;28;20819;-69
2022/12/06 12:31:17;;;;;;;27.50;16.00;;;5.50;37.00;;;;;;4973128;28;20464;-67
2022/12/06 12:33:43;;;;;;;22.07;14.63;;;5.50;36.70;;;;;;4989086;23;20507;-71
2022/12/06 12:36:17;;;;;;;21.23;15.60;;;5.50;36.70;;;;;;4957234;28;20462;-74
2022/12/06 12:38:52;;;;;;;22.57;14.90;;;5.50;36.70;;;;;;4962208;28;20512;-77
2022/12/06 12:41:26;;;;;;;22.03;14.07;;;5.50;36.80;;;;;;4962266;28;20467;-75
2022/12/06 12:43:59;;;;;;;24.13;15.13;;;5.50;36.80;;;;;;4966176;28;21181;-69
2022/12/06 12:46:27;;;;;;;22.43;14.80;;;5.50;36.90;;;;;;4960200;28;20615;-72
2022/12/06 12:48:55;;;;;;;23.30;15.10;;;5.50;37.00;;;;;;4963800;28;20462;-72
2022/12/06 12:51:32;;;;;;;24.70;15.73;;;5.50;37.10;;;;;;4964744;28;20864;-70
2022/12/06 12:54:01;;;;;;;24.10;15.10;;;5.50;37.10;;;;;;4964244;28;20488;-69
2022/12/06 12:56:31;;;;;;;23.77;15.07;;;5.60;37.10;;;;;;4962940;28;20487;-73
2022/12/06 12:58:58;;;;;;;25.70;17.27;;;5.60;36.90;;;;;;4963649;28;20520;-69
2022/12/06 13:01:43;;;;;;;22.07;15.23;;;5.60;36.80;;;;;;4963474;28;20488;-75
2022/12/06 13:04:25;;;;;;;26.47;16.50;;;5.60;36.90;;;;;;4960375;28;20489;-68
2022/12/06 13:06:57;;;;;;;21.20;14.47;;;5.60;36.90;;;;;;4969795;28;20460;-69
2022/12/06 13:09:28;;;;;;;22.23;14.70;;;5.70;37.00;;;;;;4964306;28;20970;-69
2022/12/06 13:12:01;;;;;;;25.07;14.70;;;5.70;36.90;;;;;;4967462;28;20462;-70
2022/12/06 13:14:29;;;;;;;24.23;15.37;;;5.80;36.60;;;;;;4966545;28;20889;-73
2022/12/06 13:17:00;;;;;;;24.07;16.00;;;5.80;36.00;;;;;;4965678;28;20473;-71
2022/12/06 13:19:33;;;;;;;25.87;16.43;;;5.80;36.20;;;;;;4967694;28;20461;-74
2022/12/06 13:22:04;;;;;;;24.57;16.73;;;5.80;36.00;;;;;;4967479;28;20485;-69
2022/12/06 13:24:32;;;;;;;24.40;16.30;;;5.80;36.00;;;;;;4965913;28;20493;-71